createdAt,value
2023-02-16T00:02:56.385Z,71.22
2023-02-16T00:06:59.515Z,71.24
2023-02-16T00:11:19.836Z,71.15
2023-02-16T00:15:24.486Z,71.04
2023-02-16T00:19:29.044Z,71.10
2023-02-16T00:23:32.040Z,71.18
2023-02-16T00:27:35.753Z,71.09
2023-02-16T00:31:40.234Z,71.37
2023-02-16T00:35:43.357Z,71.40
2023-02-16T00:39:47.013Z,71.59
2023-02-16T00:43:49.963Z,71.76
2023-02-16T00:47:55.385Z,71.89
2023-02-16T00:51:59.991Z,71.95
2023-02-16T00:56:03.142Z,72.18
2023-02-16T01:00:13.923Z,72.72
2023-02-16T01:04:23.485Z,72.44
2023-02-16T01:08:45.266Z,72.20
2023-02-16T01:12:48.347Z,72.42
2023-02-16T01:16:51.297Z,72.58
2023-02-16T01:20:55.903Z,72.60
2023-02-16T01:24:58.844Z,72.58
2023-02-16T01:29:01.927Z,72.97
2023-02-16T01:33:04.949Z,72.77
2023-02-16T01:37:16.196Z,72.87
2023-02-16T01:41:27.663Z,72.76
2023-02-16T01:45:35.665Z,73.02
2023-02-16T01:49:38.659Z,72.86
2023-02-16T01:53:47.289Z,73.06
2023-02-16T01:57:53.176Z,73.17
2023-02-16T02:01:58.267Z,73.27
2023-02-16T02:06:00.329Z,73.39
2023-02-16T02:10:11.312Z,73.32
2023-02-16T02:14:19.240Z,73.30
2023-02-16T02:18:23.149Z,73.47
2023-02-16T02:23:23.576Z,73.78
2023-02-16T02:27:32.463Z,73.84
2023-02-16T02:31:51.602Z,73.84
2023-02-16T02:36:07.473Z,73.90
2023-02-16T02:40:19.691Z,74.08
2023-02-16T02:44:28.023Z,74.45
2023-02-16T02:48:32.026Z,74.51
2023-02-16T02:52:35.086Z,74.65
2023-02-16T02:56:57.469Z,74.67
2023-02-16T03:01:02.678Z,74.88
2023-02-16T03:05:11.316Z,74.96
2023-02-16T03:09:16.332Z,75.48
2023-02-16T03:13:23.886Z,75.69
2023-02-16T03:17:50.710Z,76.10
2023-02-16T03:22:11.968Z,76.19
2023-02-16T03:26:34.186Z,76.65
2023-02-16T03:30:38.164Z,76.64
2023-02-16T03:34:42.804Z,76.87
2023-02-16T03:38:45.830Z,76.96
2023-02-16T03:42:52.364Z,77.29
2023-02-16T03:46:55.557Z,77.33
2023-02-16T03:51:00.004Z,77.41
2023-02-16T03:55:03.046Z,77.64
2023-02-16T03:59:07.535Z,77.57
2023-02-16T04:03:11.123Z,77.82
2023-02-16T04:07:15.563Z,77.90
2023-02-16T04:11:36.049Z,78.15
2023-02-16T04:15:39.068Z,78.20
2023-02-16T04:19:42.466Z,78.35
2023-02-16T04:23:46.824Z,77.94
2023-02-16T04:27:50.791Z,78.52
2023-02-16T04:31:54.284Z,78.29
2023-02-16T04:35:57.586Z,78.41
2023-02-16T04:40:02.024Z,78.29
2023-02-16T04:44:05.127Z,78.40
2023-02-16T04:48:08.319Z,78.47
2023-02-16T04:52:13.082Z,78.97
2023-02-16T04:56:17.584Z,78.92
2023-02-16T05:00:22.065Z,78.62
2023-02-16T05:04:25.858Z,78.97
2023-02-16T05:08:29.400Z,78.87
2023-02-16T05:12:51.054Z,78.98
2023-02-16T05:16:54.138Z,78.89
2023-02-16T05:21:14.543Z,78.87
2023-02-16T05:25:17.571Z,78.73
2023-02-16T05:29:22.519Z,78.62
2023-02-16T05:33:25.705Z,78.46
2023-02-16T05:37:28.747Z,78.31
2023-02-16T05:41:31.777Z,78.46
2023-02-16T05:45:36.134Z,78.43
2023-02-16T05:49:39.292Z,78.24
2023-02-16T05:53:42.910Z,78.15
2023-02-16T05:57:46.125Z,78.18
2023-02-16T06:01:52.253Z,78.18
2023-02-16T06:05:56.843Z,78.15
2023-02-16T06:09:59.905Z,78.37
2023-02-16T06:14:03.227Z,78.41
2023-02-16T06:18:07.697Z,78.36
2023-02-16T06:22:10.667Z,77.62
2023-02-16T06:26:13.857Z,77.57
2023-02-16T06:30:17.422Z,78.02
2023-02-16T06:34:22.335Z,77.88
2023-02-16T06:38:25.412Z,77.64
2023-02-16T06:42:28.397Z,77.73
2023-02-16T06:46:31.973Z,78.16
2023-02-16T06:50:36.766Z,78.42
2023-02-16T06:54:39.791Z,78.53
2023-02-16T06:58:43.539Z,78.48
2023-02-16T07:02:46.844Z,78.48
2023-02-16T07:06:51.260Z,78.77
2023-02-16T07:10:54.840Z,78.56
2023-02-16T07:14:57.880Z,78.24
2023-02-16T07:19:01.331Z,78.46
2023-02-16T07:23:06.725Z,78.22
2023-02-16T07:27:09.727Z,77.98
2023-02-16T07:31:14.871Z,78.28
2023-02-16T07:35:18.000Z,78.28
2023-02-16T07:39:22.514Z,78.34
2023-02-16T07:43:26.352Z,78.60
2023-02-16T07:47:29.391Z,78.61
2023-02-16T07:51:33.379Z,78.90
2023-02-16T07:55:41.896Z,78.63
2023-02-16T07:59:44.859Z,78.34
2023-02-16T08:03:47.885Z,78.00
2023-02-16T08:07:50.888Z,77.77
2023-02-16T08:11:55.249Z,77.69
2023-02-16T08:15:58.247Z,78.04
2023-02-16T08:20:01.368Z,77.98
2023-02-16T08:24:07.043Z,78.33
2023-02-16T08:28:15.066Z,77.72
2023-02-16T08:32:18.111Z,77.32
2023-02-16T08:36:23.581Z,77.40
2023-02-16T08:40:26.902Z,77.38
2023-02-16T08:44:31.957Z,77.64
2023-02-16T08:48:35.655Z,77.29
2023-02-16T08:52:38.753Z,77.47
2023-02-16T08:56:45.888Z,77.70
2023-02-16T09:00:50.786Z,77.28
2023-02-16T09:04:53.781Z,77.16
2023-02-16T09:08:58.020Z,75.99
2023-02-16T09:13:01.012Z,76.21
2023-02-16T09:17:05.416Z,76.74
2023-02-16T09:21:11.112Z,76.94
2023-02-16T09:25:15.667Z,76.92
2023-02-16T09:29:18.684Z,76.29
2023-02-16T09:33:23.122Z,75.85
2023-02-16T09:37:26.109Z,75.86
2023-02-16T09:41:36.396Z,75.34
2023-02-16T09:45:44.403Z,75.32
2023-02-16T09:49:49.567Z,75.57
2023-02-16T09:53:58.242Z,75.33
2023-02-16T09:58:08.414Z,75.57
2023-02-16T10:02:32.035Z,75.39
2023-02-16T10:06:51.637Z,75.39
2023-02-16T10:11:02.554Z,74.63
2023-02-16T10:15:10.621Z,74.51
2023-02-16T10:19:21.699Z,74.42
2023-02-16T10:23:35.972Z,74.51
2023-02-16T10:27:42.074Z,74.99
2023-02-16T10:31:59.875Z,74.39
2023-02-16T10:36:12.014Z,74.24
2023-02-16T10:40:28.737Z,74.46
2023-02-16T10:44:40.201Z,74.59
2023-02-16T10:48:43.490Z,74.22
2023-02-16T10:52:46.742Z,74.01
2023-02-16T10:56:57.043Z,74.23
2023-02-16T11:01:08.489Z,74.54
2023-02-16T11:05:32.308Z,73.98
2023-02-16T11:09:36.149Z,74.31
2023-02-16T11:13:40.653Z,74.18
2023-02-16T11:17:52.621Z,74.08
2023-02-16T11:21:58.580Z,74.10
2023-02-16T11:26:05.707Z,73.60
2023-02-16T11:30:29.384Z,73.81
2023-02-16T11:34:34.974Z,73.84
2023-02-16T11:38:38.597Z,73.78
2023-02-16T11:42:47.651Z,73.80
2023-02-16T11:46:52.332Z,73.72
2023-02-16T11:51:01.919Z,72.48
2023-02-16T11:55:05.438Z,72.73
2023-02-16T11:59:17.045Z,72.58
2023-02-16T12:03:34.287Z,72.53
2023-02-16T12:07:46.854Z,72.65
2023-02-16T12:12:02.469Z,72.44
2023-02-16T12:16:16.530Z,72.37
2023-02-16T12:20:36.561Z,72.78
2023-02-16T12:24:50.328Z,72.37
2023-02-16T12:29:01.955Z,72.75
2023-02-16T12:33:18.186Z,72.43
2023-02-16T12:37:32.228Z,72.27
2023-02-16T12:41:48.549Z,72.28
2023-02-16T12:45:54.159Z,71.77
2023-02-16T12:50:03.473Z,72.00
2023-02-16T12:54:14.454Z,72.17
2023-02-16T12:58:22.111Z,72.18
2023-02-16T13:02:29.904Z,72.08
2023-02-16T13:06:37.687Z,71.72
2023-02-16T13:10:57.253Z,72.03
2023-02-16T13:15:11.650Z,72.07
2023-02-16T13:19:16.694Z,72.05
2023-02-16T13:23:50.767Z,71.77
2023-02-16T13:28:02.983Z,71.68
2023-02-16T13:32:24.069Z,72.00
2023-02-16T13:36:50.839Z,71.71
2023-02-16T13:41:25.388Z,71.57
2023-02-16T13:45:32.462Z,71.44
2023-02-16T13:49:38.598Z,71.82
2023-02-16T13:53:44.433Z,71.75
2023-02-16T13:58:01.773Z,71.56
2023-02-16T14:02:12.130Z,71.68
2023-02-16T14:06:34.234Z,72.15
2023-02-16T14:11:03.905Z,72.01
2023-02-16T14:15:19.300Z,72.43
2023-02-16T14:19:27.125Z,72.21
2023-02-16T14:23:34.526Z,72.31
2023-02-16T14:27:47.108Z,72.61
2023-02-16T14:31:56.664Z,72.48
2023-02-16T14:36:15.135Z,72.94
2023-02-16T14:40:21.748Z,73.23
2023-02-16T14:44:45.196Z,72.59
2023-02-16T14:49:14.005Z,72.88
2023-02-16T14:53:51.149Z,72.91
2023-02-16T14:57:59.449Z,72.97
2023-02-16T15:02:22.546Z,72.70
2023-02-16T15:06:33.770Z,73.09
2023-02-16T15:10:40.261Z,73.08
2023-02-16T15:14:46.307Z,73.48
2023-02-16T15:18:52.310Z,73.63
2023-02-16T15:22:57.495Z,73.66
2023-02-16T15:27:02.872Z,74.10
2023-02-16T15:31:07.912Z,73.98
2023-02-16T15:35:13.732Z,74.34
2023-02-16T15:39:38.554Z,74.37
2023-02-16T15:43:49.496Z,74.17
2023-02-16T15:47:53.568Z,74.08
2023-02-16T15:51:57.891Z,74.00
2023-02-16T15:56:03.106Z,73.91
2023-02-16T16:00:15.764Z,74.15
2023-02-16T16:04:23.074Z,74.27
2023-02-16T16:08:28.736Z,74.45
2023-02-16T16:12:32.245Z,74.09
2023-02-16T16:16:36.933Z,74.34
2023-02-16T16:20:42.100Z,74.53
2023-02-16T16:24:47.847Z,74.47
2023-02-16T16:28:51.460Z,74.43
2023-02-16T16:33:04.004Z,74.46
2023-02-16T16:37:19.567Z,74.60
2023-02-16T16:41:28.196Z,74.62
2023-02-16T16:45:38.969Z,74.56
2023-02-16T16:49:52.374Z,74.55
2023-02-16T16:53:57.941Z,74.65
2023-02-16T16:58:03.343Z,74.43
2023-02-16T17:02:06.390Z,74.81
2023-02-16T17:06:11.462Z,74.73
2023-02-16T17:10:14.422Z,74.63
2023-02-16T17:14:19.800Z,74.57
2023-02-16T17:18:23.609Z,74.42
2023-02-16T17:22:28.038Z,74.73
2023-02-16T17:26:31.011Z,74.95
2023-02-16T17:30:35.275Z,75.18
2023-02-16T17:34:38.575Z,74.81
2023-02-16T17:38:43.537Z,74.90
2023-02-16T17:42:47.510Z,75.07
2023-02-16T17:46:50.891Z,74.43
2023-02-16T17:50:53.867Z,75.19
2023-02-16T17:54:58.247Z,75.12
2023-02-16T17:59:01.239Z,75.28
2023-02-16T18:03:04.491Z,75.49
2023-02-16T18:07:07.884Z,75.46
2023-02-16T18:11:12.563Z,75.19
2023-02-16T18:15:15.573Z,74.98
2023-02-16T18:19:19.451Z,74.75
2023-02-16T18:23:22.401Z,74.86
2023-02-16T18:27:29.129Z,74.91
2023-02-16T18:31:32.489Z,74.50
2023-02-16T18:35:35.831Z,74.56
2023-02-16T18:39:40.790Z,74.96
2023-02-16T18:43:45.326Z,75.04
2023-02-16T18:47:48.783Z,74.95
2023-02-16T18:51:51.759Z,74.71
2023-02-16T18:55:54.717Z,74.74
2023-02-16T18:59:59.226Z,74.97
2023-02-16T19:04:03.550Z,74.85
2023-02-16T19:08:06.668Z,74.70
2023-02-16T19:12:09.635Z,74.73
2023-02-16T19:16:14.134Z,75.22
2023-02-16T19:20:18.651Z,75.56
2023-02-16T19:24:21.655Z,75.41
2023-02-16T19:28:24.657Z,75.33
2023-02-16T19:32:29.343Z,75.34
2023-02-16T19:36:34.280Z,75.23
2023-02-16T19:40:37.286Z,75.58
2023-02-16T19:44:40.869Z,75.28
2023-02-16T19:48:45.952Z,75.39
2023-02-16T19:52:48.948Z,75.17
2023-02-16T19:56:54.080Z,75.12
2023-02-16T20:00:57.089Z,75.18
2023-02-16T20:05:01.450Z,75.21
2023-02-16T20:09:04.493Z,75.20
2023-02-16T20:13:07.463Z,75.12
2023-02-16T20:17:10.415Z,75.30
2023-02-16T20:21:16.703Z,75.33
2023-02-16T20:25:19.818Z,75.56
2023-02-16T20:29:22.952Z,75.48
2023-02-16T20:33:25.902Z,75.36
2023-02-16T20:37:30.641Z,75.36
2023-02-16T20:41:33.709Z,75.54
2023-02-16T20:45:41.203Z,75.46
2023-02-16T20:49:44.353Z,75.70
2023-02-16T20:53:49.081Z,75.62
2023-02-16T20:57:52.055Z,75.79
2023-02-16T21:01:55.117Z,75.85
2023-02-16T21:05:58.155Z,75.78
2023-02-16T21:10:02.521Z,75.79
2023-02-16T21:14:05.840Z,75.99
2023-02-16T21:18:10.495Z,75.99
2023-02-16T21:22:14.094Z,75.89
2023-02-16T21:26:19.925Z,76.05
2023-02-16T21:30:23.133Z,76.07
2023-02-16T21:34:26.423Z,76.03
2023-02-16T21:38:29.640Z,76.19
2023-02-16T21:42:35.705Z,76.14
2023-02-16T21:46:40.453Z,75.96
2023-02-16T21:50:43.498Z,76.12
2023-02-16T21:55:04.269Z,76.25
2023-02-16T21:59:10.985Z,76.17
2023-02-16T22:03:14.387Z,76.15
2023-02-16T22:07:17.437Z,76.00
2023-02-16T22:11:20.514Z,76.20
2023-02-16T22:15:25.969Z,76.23
2023-02-16T22:19:29.099Z,76.31
2023-02-16T22:23:32.514Z,76.31
2023-02-16T22:27:35.616Z,76.42
2023-02-16T22:31:40.557Z,76.05
2023-02-16T22:35:43.650Z,76.04
2023-02-16T22:39:46.889Z,76.28
2023-02-16T22:43:53.579Z,76.09
2023-02-16T22:47:58.048Z,76.20
2023-02-16T22:52:01.019Z,76.23
2023-02-16T22:56:07.227Z,76.31
2023-02-16T23:00:14.877Z,76.46
2023-02-16T23:04:19.604Z,76.49
2023-02-16T23:08:23.177Z,76.25
2023-02-16T23:12:26.202Z,76.43
2023-02-16T23:16:29.502Z,76.94
2023-02-16T23:20:34.292Z,76.88
2023-02-16T23:24:37.344Z,76.73
2023-02-16T23:28:41.871Z,76.90
2023-02-16T23:32:45.027Z,77.04
2023-02-16T23:36:49.489Z,77.07
2023-02-16T23:40:59.762Z,77.19
2023-02-16T23:45:02.763Z,76.98
2023-02-16T23:49:05.788Z,77.08
2023-02-16T23:53:10.138Z,77.05
2023-02-16T23:57:13.220Z,76.98
